Steptoe Valley WMA, Nevada Weather observations

Data are for 10 minute period ending at time listed.
 Day   Time   Solar   Ave.   Ave.  Ave.  Vector  Max.   Baro.   Total    
  of    of     Rad.   Air    Rel.  Wind   Wind   Wind  Press.  Precip.   
Year   Day            Temp.  Hum.  Speed  Dir.   Gust                    
2017   (PST)  Kw/m2    F      %     mph   deg.    mph    mb.     in.     
-------------------------------------------------------------------------
  49   11:00   0.28   37.7    87   11.6   159    17.2   789.3    0.00 
  49   11:10   0.27   37.5    88   11.7   164    16.3   789.3    0.00 
  49   11:20   0.47   38.3    88   12.8   170    20.5   789.2    0.00 
  49   11:30   0.68   39.3    88   13.4   163    21.1   789.1    0.01 
  49   11:40   0.69   39.9    86   13.7   165    20.2   789.0    0.00 
  49   11:50   0.59   40.1    86   12.8   165    19.4   788.9    0.00 
  49   12:00   0.56   39.4    86   13.0   165    18.9   788.7    0.00 
  49   12:10   0.67   40.4    85   12.4   164    17.6   788.4    0.00 
  49   12:20   0.56   40.6    82   12.2   170    18.2   788.4    0.00 
  49   12:30   0.40   40.5    80   13.9   165    20.8   788.4    0.00 
  49   12:40   0.43   40.6    80   13.9   166    22.0   788.3    0.00 
  49   12:50   0.44   40.6    79   14.4   165    20.9   788.2    0.00 
  49   13:00   0.39   40.9    78   14.4   165    21.3   788.1    0.00 
  49   13:10   0.34   40.5    79   14.0   165    21.2   788.1    0.00 
  49   13:20   0.36   40.5    80   14.7   157    20.6   788.0    0.00 
  49   13:30   0.42   40.3    81   14.0   163    19.5   787.9    0.00 
  49   13:40   0.44   41.1    78   13.4   159    19.5   788.0    0.00 
  49   13:50   0.38   41.8    77   11.6   165    16.3   788.1    0.00 
  49   14:00   0.36   41.6    76   13.1   166    18.4   788.2    0.00 
  49   14:10   0.34   41.5    76   12.7   167    17.6   788.2    0.00 
  49   14:20   0.29   41.3    76   12.7   167    17.2   788.3    0.00 
  49   14:30   0.28   41.3    77   12.1   164    18.6   788.3    0.00 
  49   14:40   0.23   41.2    78   12.0   162    17.7   788.3    0.00 
  49   14:50   0.17   40.2    81   12.2   162    17.5   788.3    0.00 
  49   15:00   0.14   39.7    83   12.2   168    18.2   788.3    0.00 
  49   15:10   0.12   39.2    85   10.8   165    17.5   788.3    0.00 
  49   15:20   0.12   39.0    85   12.3   164    18.1   788.4    0.00 
  49   15:30   0.10   38.6    86   12.8   165    18.2   788.5    0.00 
  49   15:40   0.08   38.0    87   12.7   163    21.4   788.5    0.00 
  49   15:50   0.09   37.8    88   11.8   166    18.3   788.6    0.00 
  49   16:00   0.08   37.7    88   12.4   162    17.7   788.6    0.00 
  49   16:10   0.06   37.6    88   11.6   164    17.0   788.7    0.00 
  49   16:20   0.04   37.2    88   11.5   165    17.8   788.8    0.00 
  49   16:30   0.03   36.7    89   10.9   161    16.3   788.9    0.00 
  49   16:40   0.02   36.6    90   10.4   160    14.7   789.0    0.01 
  49   16:50   0.02   36.4    90   10.8   156    14.8   788.8    0.00 
  49   17:00   0.02   36.3    90    9.1   148    14.3   788.7    0.00 
  49   17:10   0.01   36.2    91    9.9   152    14.7   788.8    0.00 
  49   17:20   0.01   36.2    90   11.1   146    17.5   789.0    0.01 
  49   17:30   0.00   36.1    89   10.5   151    14.5   789.0    0.00 
  49   17:40   0.00   35.8    90   10.4   152    14.9   789.0    0.00 
  49   17:50   0.00   35.5    90    8.8   153    12.3   789.1    0.00 
  49   18:00   0.00   35.3    91    8.5   149    12.4   789.1    0.00 
  49   18:10   0.00   35.3    92    8.4   152    12.5   789.2    0.00 
  49   18:20   0.00   35.3    92    7.7   152    11.9   789.3    0.00 
  49   18:30   0.00   35.4    92    8.3   153    11.8   789.3    0.00 
  49   18:40   0.00   35.4    92    6.5   158     9.2   789.3    0.00 
  49   18:50   0.00   35.1    92    6.8   163     9.4   789.4    0.00 
  49   19:00   0.00   35.1    92    8.3   152    13.1   789.3    0.00 
  49   19:10   0.00   35.3    91    9.3   149    13.1   789.2    0.00 
  49   19:20   0.00   35.0    91    8.9   150    13.0   789.2    0.00 
  49   19:30   0.00   34.9    92   10.0   153    14.5   789.1    0.00 
  49   19:40   0.00   35.2    91   11.3   145    17.0   789.2    0.00 
  49   19:50   0.00   35.7    90   11.8   142    18.9   789.2    0.00 
  49   20:00   0.00   35.7    88   12.1   145    18.2   789.3    0.00 
  49   20:10   0.00   35.5    89   10.2   148    15.3   789.4    0.00 
  49   20:20   0.00   35.4    89   10.3   147    14.6   789.4    0.00 
  49   20:30   0.00   35.2    90   10.2   151    14.0   789.4    0.00 
  49   20:40   0.00   34.8    91   10.8   152    15.5   789.4    0.00 
  49   20:50   0.00   34.6    91   10.7   153    15.3   789.5    0.00 
  49   21:00   0.00   34.5    92    9.6   158    13.5   789.6    0.00 
  49   21:10   0.00   34.4    92    9.2   161    12.4   789.7    0.00 
  49   21:20   0.00   34.5    92    8.9   159    12.1   789.7    0.00 
  49   21:30   0.00   34.8    92   10.5   152    15.9   789.8    0.00 
  49   21:40   0.00   34.7    92   10.2   149    13.7   789.9    0.01 
  49   21:50   0.00   34.3    92    9.5   145    14.3   789.9    0.00 
  49   22:00   0.00   34.3    93    9.5   144    13.7   789.9    0.00 
  49   22:10   0.00   34.1    93   10.2   145    16.1   789.8    0.00 
  49   22:20   0.00   34.1    93   10.8   146    16.7   789.8    0.01 
  49   22:30   0.00   34.5    93   11.5   146    15.8   789.9    0.00 
  49   22:40   0.00   34.6    92   10.6   145    15.9   789.9    0.00 
  49   22:50   0.00   34.7    92   11.1   143    16.1   789.9    0.00 
  49   23:00   0.00   34.8    92   11.1   143    15.9   790.0    0.00 
  49   23:10   0.00   34.8    92   11.0   144    15.3   790.1    0.00 
  49   23:20   0.00   34.8    91   11.2   142    16.0   790.1    0.00 
  49   23:30   0.00   34.9    91   12.3   142    18.3   790.2    0.00 
  49   23:40   0.00   34.8    91   10.6   146    15.2   790.4    0.00 
  49   23:50   0.00   34.8    91   11.0   150    16.7   790.4    0.00 
  50    0:00   0.00   34.8    91   10.4   148    15.1   790.4    0.00 
  50    0:10   0.00   34.7    91    9.8   145    15.4   790.5    0.00 
  50    0:20   0.00   34.5    92    9.1   141    13.4   790.6    0.00 
  50    0:30   0.00   34.3    92    8.9   141    14.0   790.6    0.00 
  50    0:40   0.00   34.1    92    8.3   137    12.7   790.6    0.00 
  50    0:50   0.00   34.0    92    8.2   138    11.7   790.5    0.00 
  50    1:00   0.00   34.1    92    9.3   141    14.1   790.4    0.00 
  50    1:10   0.00   34.2    92    8.8   143    14.0   790.5    0.00 
  50    1:20   0.00   34.4    92    8.1   145    12.0   790.6    0.00 
  50    1:30   0.00   34.5    92    6.2   145     9.2   790.7    0.00 
  50    1:40   0.00   34.6    92    5.0   145     8.3   790.7    0.01 
  50    1:50   0.00   34.7    92    4.6   141     6.9   790.7    0.00 
  50    2:00   0.00   34.8    92    3.4   148     5.0   790.7    0.00 
  50    2:10   0.00   34.9    92    4.7   146     8.8   790.7    0.00 
  50    2:20   0.00   34.8    91    5.9   149     8.2   790.7    0.01 
  50    2:30   0.00   34.6    92    6.2   147    10.4   790.5    0.02 
  50    2:40   0.00   34.4    92    7.1   146    10.4   790.4    0.00 
  50    2:50   0.00   34.1    92    5.4   149     8.9   790.5    0.01 
  50    3:00   0.00   34.1    92    2.3   167     6.2   790.7    0.00 
  50    3:10   0.00   33.7    92    1.1   341     3.3   790.7    0.00 
  50    3:20   0.00   33.4    92    0.2   350     1.0   790.6    0.00 
  50    3:30   0.00   33.2    92    0.6   321     1.8   790.6    0.00 
  50    3:40   0.00   33.1    92    0.1   245     0.9   790.6    0.00 
  50    3:50   0.00   33.3    93    1.1   250     5.6   790.6    0.00 
  50    4:00   0.00   33.5    93    3.9   231     6.5   790.7    0.00 
  50    4:10   0.00   33.5    93    1.8   202     2.9   790.8    0.00 
  50    4:20   0.00   33.0    93    2.7   165     3.3   790.7    0.00 
  50    4:30   0.00   32.5    93    2.7   160     4.5   790.6    0.00 
  50    4:40   0.00   32.9    94    4.5   158     7.9   790.6    0.00 
  50    4:50   0.00   33.7    93    3.5   174     6.7   790.7    0.00 
  50    5:00   0.00   33.7    93    2.5   177     8.9   790.9    0.00 
  50    5:10   0.00   33.7    92    2.6   175     6.1   790.9    0.00 
  50    5:20   0.00   33.9    93    4.4   156    11.1   791.1    0.00 
  50    5:30   0.00   34.3    92    5.5   170     9.7   791.1    0.00 
  50    5:40   0.00   34.3    91    5.8   176     8.3   791.2    0.00 
  50    5:50   0.00   34.0    91    4.0   192     6.2   791.2    0.00 
  50    6:00   0.00   33.4    92    3.1   185     5.0   791.4    0.00 
  50    6:10   0.00   33.5    92    3.4   181     5.6   791.5    0.00 
  50    6:20   0.00   33.5    92    1.7   171     4.2   791.6    0.00 
  50    6:30   0.00   33.4    93    3.4   126     6.4   791.7    0.00 
  50    6:40   0.01   33.2    93    2.6   138     4.5   791.8    0.00 
  50    6:50   0.02   33.1    93    2.3   168     3.4   791.9    0.00 
  50    7:00   0.03   33.0    93    2.0   209     3.1   791.9    0.00 
  50    7:10   0.06   33.0    93    0.7   152     1.8   792.0    0.00 
  50    7:20   0.07   33.5    93    0.2   179     1.2   792.2    0.00 
  50    7:30   0.08   34.1    93    1.5   142     6.7   792.3    0.00 
  50    7:40   0.09   34.9    93    5.8   158     8.8   792.5    0.00 
  50    7:50   0.11   35.6    92    6.9   152    10.6   792.6    0.00 
  50    8:00   0.16   36.3    92    6.9   145    10.2   792.8    0.00 
  50    8:10   0.22   37.7    90    6.6   151    10.2   792.9    0.00 
  50    8:20   0.13   37.2    89    6.7   161    10.3   793.0    0.00 
  50    8:30   0.27   37.7    89    7.6   163    10.6   793.0    0.00 
  50    8:40   0.24   38.1    88    7.6   168    10.4   793.1    0.00 
  50    8:50   0.24   38.3    88    5.9   170     8.1   793.1    0.00 
  50    9:00   0.31   39.3    86    5.3   159     8.6   793.1    0.00 
  50    9:10   0.28   39.1    85    5.4   154     9.2   793.1    0.00 
  50    9:20   0.59   41.6    82    7.9   169    12.3   793.3    0.00 
  50    9:30   0.61   42.8    74    5.1   176     9.7   793.4    0.00 
  50    9:40   0.37   42.8    74    6.4   166    10.7   793.5    0.00 
  50    9:50   0.48   41.4    77    6.8   150    10.0   793.7    0.00 
  50   10:00   0.57   42.8    73    5.5   163     8.6   793.7    0.00 
  50   10:10   0.47   44.2    67    4.5   172     9.3   793.7    0.00 
  50   10:20   0.42   42.5    70    5.9   233    13.9   793.7    0.00 
  50   10:30   0.69   44.3    64    5.2   220    10.7   793.8    0.00 
  50   10:40   0.82   44.9    61    5.6   247     9.1   793.8    0.00 
  50   10:50   0.63   44.4    62    5.1   269    10.5   793.8    0.00 

Return to Steptoe Valley WMA graphs page.


Western Regional Climate Center,wrcc@dri.edu